Time;durP1;ratioP1;P1;durP2;ratioP2;P2;SDS_P1;SDS_P2;PMS_P1;PMS_P2;Temp;Humidity;BMP_temperature;BMP_pressure;BME280_temperature;BME280_humidity;BME280_pressure;Samples;Min_cycle;Max_cycle;Signal;HPM_P1;HPM_P2
2022/03/11 00:01:38;;;;;;;14.68;5.70;;;;;;;;;;5077872;28;20574;-64
2022/03/11 00:04:25;;;;;;;12.05;5.75;;;;;;;;;;5069817;28;20969;-64
2022/03/11 00:06:51;;;;;;;15.32;6.28;;;;;;;;;;5067401;28;20053;-64
2022/03/11 00:09:17;;;;;;;14.32;6.90;;;;;;;;;;5083974;28;20060;-64
2022/03/11 00:11:44;;;;;;;12.57;5.82;;;;;;;;;;5072060;28;20061;-64
2022/03/11 00:14:11;;;;;;;13.23;6.25;;;;;;;;;;5067928;28;20106;-64
2022/03/11 00:16:37;;;;;;;12.52;6.05;;;;;;;;;;5079056;28;20054;-63
2022/03/11 00:19:04;;;;;;;14.40;6.47;;;;;;;;;;5077375;28;20052;-64
2022/03/11 00:21:32;;;;;;;13.25;6.30;;;;;;;;;;5088244;28;20049;-64
2022/03/11 00:23:58;;;;;;;13.75;6.30;;;;;;;;;;5075332;28;20189;-64
2022/03/11 00:26:25;;;;;;;14.63;6.13;;;;;;;;;;5084775;28;20048;-64
2022/03/11 00:28:51;;;;;;;12.65;6.50;;;;;;;;;;5078587;28;20055;-64
2022/03/11 00:31:18;;;;;;;11.80;5.93;;;;;;;;;;5073866;28;20136;-63
2022/03/11 00:33:44;;;;;;;16.27;6.80;;;;;;;;;;5079274;28;20067;-64
2022/03/11 00:36:10;;;;;;;12.95;6.28;;;;;;;;;;5074281;28;20060;-64
2022/03/11 00:38:37;;;;;;;14.20;6.75;;;;;;;;;;5074331;28;20049;-64
2022/03/11 00:41:04;;;;;;;12.18;5.88;;;;;;;;;;5067165;28;20061;-64
2022/03/11 00:43:30;;;;;;;13.70;6.35;;;;;;;;;;5072716;28;20056;-63
2022/03/11 00:45:56;;;;;;;15.32;6.47;;;;;;;;;;5079586;28;20590;-64
2022/03/11 00:48:23;;;;;;;13.65;6.65;;;;;;;;;;5073372;28;20087;-64
2022/03/11 00:50:49;;;;;;;11.93;6.28;;;;;;;;;;5070535;28;20442;-64
2022/03/11 00:53:15;;;;;;;15.73;7.18;;;;;;;;;;5067898;28;20525;-64
2022/03/11 00:55:42;;;;;;;13.60;6.45;;;;;;;;;;5072723;28;20045;-64
2022/03/11 00:58:08;;;;;;;15.15;6.82;;;;;;;;;;5086932;28;20254;-64
2022/03/11 01:00:34;;;;;;;14.60;6.68;;;;;;;;;;5089410;28;20467;-64
2022/03/11 01:03:01;;;;;;;16.17;6.82;;;;;;;;;;5081263;28;20056;-64
2022/03/11 01:05:27;;;;;;;13.50;6.95;;;;;;;;;;5070638;28;20071;-64
2022/03/11 01:07:53;;;;;;;16.45;6.82;;;;;;;;;;5090316;28;20140;-64
2022/03/11 01:10:20;;;;;;;13.98;6.75;;;;;;;;;;5087963;28;20159;-64
2022/03/11 01:12:46;;;;;;;13.32;6.68;;;;;;;;;;5070454;28;20053;-64
2022/03/11 01:15:12;;;;;;;14.48;6.53;;;;;;;;;;5078807;28;20868;-64
2022/03/11 01:17:39;;;;;;;17.40;6.30;;;;;;;;;;5084678;28;20140;-64
2022/03/11 01:20:06;;;;;;;14.00;6.82;;;;;;;;;;5081763;28;20568;-64
2022/03/11 01:22:33;;;;;;;16.33;7.90;;;;;;;;;;5090928;28;20932;-64
2022/03/11 01:24:59;;;;;;;16.23;7.40;;;;;;;;;;5078414;28;20582;-63
2022/03/11 01:27:26;;;;;;;15.40;6.72;;;;;;;;;;5070775;28;20144;-64
2022/03/11 01:29:52;;;;;;;15.43;7.28;;;;;;;;;;5080613;28;20052;-64
2022/03/11 01:32:18;;;;;;;15.77;7.43;;;;;;;;;;5089203;28;20056;-64
2022/03/11 01:34:45;;;;;;;17.08;7.05;;;;;;;;;;5075228;28;20048;-64
2022/03/11 01:37:11;;;;;;;13.50;6.97;;;;;;;;;;5083191;28;20080;-64
2022/03/11 01:39:37;;;;;;;15.02;6.20;;;;;;;;;;5088146;28;20048;-64
2022/03/11 01:42:03;;;;;;;14.68;7.10;;;;;;;;;;5083661;28;20386;-64
2022/03/11 01:44:30;;;;;;;15.35;7.38;;;;;;;;;;5082040;28;20576;-64
2022/03/11 01:46:56;;;;;;;14.73;6.50;;;;;;;;;;5079625;28;20064;-64
2022/03/11 01:49:23;;;;;;;17.75;7.10;;;;;;;;;;5071297;28;20148;-64
2022/03/11 01:51:49;;;;;;;15.35;6.85;;;;;;;;;;5089739;28;20059;-64
2022/03/11 01:54:16;;;;;;;14.77;6.90;;;;;;;;;;5079863;28;20057;-64
2022/03/11 01:56:42;;;;;;;14.85;6.78;;;;;;;;;;5074368;28;20503;-64
2022/03/11 01:59:11;;;;;;;16.38;7.05;;;;;;;;;;5074526;28;20079;-64
2022/03/11 02:01:37;;;;;;;15.73;6.90;;;;;;;;;;5080826;28;20498;-66
2022/03/11 02:04:04;;;;;;;13.20;6.57;;;;;;;;;;5083887;28;20523;-64
2022/03/11 02:06:30;;;;;;;15.60;7.30;;;;;;;;;;5082406;28;20056;-64
2022/03/11 02:08:58;;;;;;;15.43;7.22;;;;;;;;;;5079678;28;20498;-64
2022/03/11 02:11:24;;;;;;;15.07;6.70;;;;;;;;;;5088879;28;20053;-64
2022/03/11 02:13:52;;;;;;;14.73;7.25;;;;;;;;;;5085059;28;20503;-64
2022/03/11 02:16:19;;;;;;;13.65;6.93;;;;;;;;;;5085544;28;20091;-64
2022/03/11 02:18:46;;;;;;;16.38;7.57;;;;;;;;;;5068792;28;20053;-64
2022/03/11 02:21:14;;;;;;;15.23;7.07;;;;;;;;;;5069881;28;20525;-64
2022/03/11 02:23:40;;;;;;;12.85;6.32;;;;;;;;;;5068379;28;20586;-64
2022/03/11 02:26:07;;;;;;;16.10;7.68;;;;;;;;;;5068703;28;20057;-64
2022/03/11 02:28:33;;;;;;;16.00;7.38;;;;;;;;;;5068239;28;20053;-64
2022/03/11 02:31:01;;;;;;;13.77;6.95;;;;;;;;;;5067525;28;20053;-64
2022/03/11 02:33:27;;;;;;;15.57;7.25;;;;;;;;;;5078159;28;20148;-64
2022/03/11 02:35:54;;;;;;;17.00;7.25;;;;;;;;;;5068935;28;20168;-63
2022/03/11 02:38:20;;;;;;;16.55;7.18;;;;;;;;;;5084889;28;20494;-64
2022/03/11 02:40:47;;;;;;;18.67;6.88;;;;;;;;;;5075256;28;20057;-64
2022/03/11 02:43:13;;;;;;;16.25;7.85;;;;;;;;;;5089659;28;20076;-63
2022/03/11 02:45:39;;;;;;;16.63;6.95;;;;;;;;;;5080251;28;20139;-63
2022/03/11 02:48:06;;;;;;;16.08;7.38;;;;;;;;;;5086878;28;20137;-63
2022/03/11 02:50:34;;;;;;;16.58;7.65;;;;;;;;;;5088562;28;20053;-63
2022/03/11 02:53:00;;;;;;;16.10;6.65;;;;;;;;;;5088137;28;20063;-63
2022/03/11 02:55:26;;;;;;;17.35;7.75;;;;;;;;;;5074457;28;20049;-63
2022/03/11 02:57:53;;;;;;;15.02;7.10;;;;;;;;;;5072023;28;20048;-63
2022/03/11 03:00:19;;;;;;;15.30;7.78;;;;;;;;;;5073968;28;20056;-63
2022/03/11 03:02:45;;;;;;;14.45;6.88;;;;;;;;;;5076989;28;20049;-63
2022/03/11 03:05:13;;;;;;;14.40;7.03;;;;;;;;;;5077295;28;20061;-63
2022/03/11 03:07:40;;;;;;;16.57;6.80;;;;;;;;;;5069590;28;20055;-63
2022/03/11 03:10:06;;;;;;;14.65;7.43;;;;;;;;;;5068449;28;20286;-63
2022/03/11 03:12:33;;;;;;;16.85;8.55;;;;;;;;;;5068614;28;20111;-63
2022/03/11 03:14:59;;;;;;;13.77;6.85;;;;;;;;;;5079581;28;20502;-63
2022/03/11 03:17:26;;;;;;;16.25;7.68;;;;;;;;;;5082333;28;20044;-63
2022/03/11 03:19:57;;;;;;;12.43;6.57;;;;;;;;;;5083731;28;20528;-63
2022/03/11 03:22:23;;;;;;;17.20;7.30;;;;;;;;;;5087810;28;20091;-63
2022/03/11 03:24:50;;;;;;;19.02;7.82;;;;;;;;;;5087809;28;20056;-63
2022/03/11 03:27:16;;;;;;;20.08;8.55;;;;;;;;;;5085481;28;20049;-63
2022/03/11 03:29:42;;;;;;;16.05;7.63;;;;;;;;;;5076971;28;20491;-62
2022/03/11 03:32:09;;;;;;;15.63;7.28;;;;;;;;;;5082238;28;20059;-63
2022/03/11 03:34:36;;;;;;;16.23;7.82;;;;;;;;;;5067734;28;20139;-63
2022/03/11 03:37:07;;;;;;;17.95;7.97;;;;;;;;;;5075407;28;20056;-63
2022/03/11 03:39:33;;;;;;;15.32;7.43;;;;;;;;;;5075763;28;20083;-63
2022/03/11 03:42:00;;;;;;;16.17;7.93;;;;;;;;;;5087805;28;20045;-63
2022/03/11 03:44:26;;;;;;;14.43;7.32;;;;;;;;;;5085618;28;20148;-63
2022/03/11 03:46:52;;;;;;;14.52;7.10;;;;;;;;;;5087158;28;20147;-63
2022/03/11 03:49:19;;;;;;;13.98;6.72;;;;;;;;;;5084154;28;20140;-63
2022/03/11 03:51:46;;;;;;;18.17;7.97;;;;;;;;;;5067677;28;20080;-63
2022/03/11 03:54:12;;;;;;;16.15;7.60;;;;;;;;;;5072691;28;20052;-64
2022/03/11 03:56:39;;;;;;;14.43;7.15;;;;;;;;;;5067511;28;20055;-64
2022/03/11 03:59:07;;;;;;;15.10;7.38;;;;;;;;;;5067044;28;20049;-64
2022/03/11 04:01:34;;;;;;;17.67;7.03;;;;;;;;;;5067693;28;20052;-64
2022/03/11 04:04:02;;;;;;;13.82;7.13;;;;;;;;;;5066628;28;20049;-63
2022/03/11 04:06:29;;;;;;;17.33;7.88;;;;;;;;;;5067946;28;20144;-64
2022/03/11 04:08:59;;;;;;;16.70;7.05;;;;;;;;;;5067213;28;20049;-64
2022/03/11 04:11:28;;;;;;;17.70;7.32;;;;;;;;;;5082909;28;20084;-64
2022/03/11 04:13:55;;;;;;;14.38;6.88;;;;;;;;;;5078407;28;20056;-64
2022/03/11 04:16:22;;;;;;;15.77;7.55;;;;;;;;;;5075630;28;20491;-64
2022/03/11 04:18:49;;;;;;;13.52;6.95;;;;;;;;;;5068468;28;20061;-64
2022/03/11 04:21:17;;;;;;;13.82;7.03;;;;;;;;;;5083637;28;20053;-64
2022/03/11 04:23:44;;;;;;;17.30;7.22;;;;;;;;;;5086022;28;20139;-64
2022/03/11 04:26:10;;;;;;;18.75;7.82;;;;;;;;;;5082400;28;20144;-64
2022/03/11 04:28:37;;;;;;;18.13;7.45;;;;;;;;;;5089985;28;20080;-64
2022/03/11 04:31:04;;;;;;;14.75;6.68;;;;;;;;;;5077648;28;20546;-64
2022/03/11 04:33:30;;;;;;;16.13;7.60;;;;;;;;;;5073622;28;20052;-64
2022/03/11 04:35:57;;;;;;;14.48;6.60;;;;;;;;;;5073394;28;20056;-64
2022/03/11 04:38:23;;;;;;;14.40;6.68;;;;;;;;;;5086632;28;20143;-64
2022/03/11 04:40:49;;;;;;;13.88;6.85;;;;;;;;;;5082944;28;20142;-64
2022/03/11 04:43:16;;;;;;;15.38;7.15;;;;;;;;;;5070694;28;20115;-64
2022/03/11 04:45:42;;;;;;;15.07;6.72;;;;;;;;;;5088037;28;20491;-64
2022/03/11 04:48:09;;;;;;;15.00;6.75;;;;;;;;;;5089858;28;20135;-64
2022/03/11 04:50:36;;;;;;;16.20;7.63;;;;;;;;;;5081176;28;20076;-64
2022/03/11 04:53:03;;;;;;;23.83;7.50;;;;;;;;;;5071335;28;20143;-64
2022/03/11 04:55:29;;;;;;;17.42;7.35;;;;;;;;;;5074345;28;20076;-64
2022/03/11 04:57:56;;;;;;;14.70;6.75;;;;;;;;;;5070202;28;20072;-64
2022/03/11 05:00:22;;;;;;;13.25;6.18;;;;;;;;;;5075228;28;20055;-64
2022/03/11 05:02:48;;;;;;;15.88;6.60;;;;;;;;;;5084725;28;20491;-64
2022/03/11 05:05:15;;;;;;;14.40;6.00;;;;;;;;;;5081888;28;20053;-64
2022/03/11 05:07:41;;;;;;;18.38;6.38;;;;;;;;;;5090389;28;20154;-64
2022/03/11 05:10:09;;;;;;;13.75;6.55;;;;;;;;;;5087405;28;20144;-64
2022/03/11 05:12:37;;;;;;;13.63;7.27;;;;;;;;;;5090158;28;20072;-64
2022/03/11 05:15:04;;;;;;;14.57;6.73;;;;;;;;;;5081498;28;20049;-64
2022/03/11 05:17:31;;;;;;;14.40;6.88;;;;;;;;;;5070358;28;20593;-64
2022/03/11 05:19:58;;;;;;;14.90;6.20;;;;;;;;;;5072067;28;20600;-64
2022/03/11 05:22:24;;;;;;;15.18;6.78;;;;;;;;;;5090131;28;20087;-64
2022/03/11 05:24:50;;;;;;;15.40;6.68;;;;;;;;;;5071222;28;20519;-63
2022/03/11 05:27:17;;;;;;;16.08;6.82;;;;;;;;;;5080747;28;20075;-64
2022/03/11 05:29:43;;;;;;;16.83;6.95;;;;;;;;;;5072791;28;20053;-64
2022/03/11 05:32:10;;;;;;;15.30;7.13;;;;;;;;;;5070246;28;20049;-64
2022/03/11 05:34:40;;;;;;;18.38;7.03;;;;;;;;;;5075226;28;20136;-64
2022/03/11 05:37:06;;;;;;;14.52;7.22;;;;;;;;;;5070197;28;20056;-62
2022/03/11 05:39:33;;;;;;;12.80;6.10;;;;;;;;;;5070737;28;20053;-64
2022/03/11 05:42:00;;;;;;;17.58;7.38;;;;;;;;;;5071653;28;20136;-64
2022/03/11 05:44:26;;;;;;;11.02;6.43;;;;;;;;;;5083639;28;20062;-64
2022/03/11 05:46:52;;;;;;;15.52;7.18;;;;;;;;;;5082935;28;20053;-64
2022/03/11 05:49:19;;;;;;;15.02;5.88;;;;;;;;;;5077051;28;20847;-65
2022/03/11 05:51:46;;;;;;;13.52;6.75;;;;;;;;;;5069613;28;20060;-64
2022/03/11 05:54:12;;;;;;;17.70;6.80;;;;;;;;;;5079924;28;20062;-64
2022/03/11 05:56:38;;;;;;;13.23;6.28;;;;;;;;;;5069273;28;20059;-64
2022/03/11 05:59:05;;;;;;;14.02;5.80;;;;;;;;;;5068996;28;20140;-64
2022/03/11 06:01:32;;;;;;;14.75;6.93;;;;;;;;;;5074746;28;20055;-63
2022/03/11 06:04:00;;;;;;;15.80;6.93;;;;;;;;;;5083225;28;20052;-66
2022/03/11 06:06:27;;;;;;;14.90;7.22;;;;;;;;;;5069499;28;20063;-64
2022/03/11 06:08:53;;;;;;;17.42;6.80;;;;;;;;;;5074455;28;20057;-64
2022/03/11 06:11:21;;;;;;;15.82;7.07;;;;;;;;;;5068842;28;20150;-63
2022/03/11 06:13:47;;;;;;;13.55;6.00;;;;;;;;;;5076263;28;20053;-64
2022/03/11 06:16:14;;;;;;;14.60;7.10;;;;;;;;;;5084723;28;20050;-64
2022/03/11 06:18:40;;;;;;;13.23;7.13;;;;;;;;;;5091611;28;20127;-64
2022/03/11 06:21:07;;;;;;;12.57;6.80;;;;;;;;;;5092816;27;20575;-64
2022/03/11 06:23:35;;;;;;;14.85;6.68;;;;;;;;;;5084108;28;20136;-64
2022/03/11 06:26:02;;;;;;;14.65;6.63;;;;;;;;;;5082163;28;20532;-64
2022/03/11 06:28:28;;;;;;;14.15;7.03;;;;;;;;;;5084140;28;20175;-63
2022/03/11 06:30:55;;;;;;;17.00;7.53;;;;;;;;;;5069660;28;20139;-63
2022/03/11 06:33:21;;;;;;;14.38;6.13;;;;;;;;;;5074340;28;20192;-63
2022/03/11 06:35:48;;;;;;;18.42;7.32;;;;;;;;;;5075779;28;20061;-63
2022/03/11 06:38:14;;;;;;;16.52;7.57;;;;;;;;;;5072166;28;20513;-63
2022/03/11 06:40:40;;;;;;;13.27;6.70;;;;;;;;;;5071473;28;20499;-63
2022/03/11 06:43:07;;;;;;;16.25;6.53;;;;;;;;;;5078704;28;20135;-63
2022/03/11 06:45:33;;;;;;;14.13;6.50;;;;;;;;;;5088037;27;20911;-64
2022/03/11 06:48:00;;;;;;;14.68;6.78;;;;;;;;;;5074871;28;20624;-63
2022/03/11 06:50:26;;;;;;;15.50;6.47;;;;;;;;;;5080008;28;20890;-64
2022/03/11 06:52:53;;;;;;;14.70;6.28;;;;;;;;;;5071451;28;20070;-63
2022/03/11 06:55:19;;;;;;;15.70;7.22;;;;;;;;;;5076878;28;20064;-62
2022/03/11 06:57:45;;;;;;;14.93;6.85;;;;;;;;;;5081108;28;20053;-63
2022/03/11 07:00:13;;;;;;;14.10;6.80;;;;;;;;;;5067793;28;20601;-64
2022/03/11 07:02:39;;;;;;;19.30;7.75;;;;;;;;;;5067902;28;20061;-63
2022/03/11 07:05:06;;;;;;;16.17;7.22;;;;;;;;;;5067503;28;20148;-64
2022/03/11 07:07:33;;;;;;;16.75;7.53;;;;;;;;;;5068539;28;20473;-64
2022/03/11 07:10:00;;;;;;;22.55;7.50;;;;;;;;;;5075569;28;20610;-64
2022/03/11 07:12:27;;;;;;;13.93;6.50;;;;;;;;;;5081696;28;20144;-64
2022/03/11 07:14:53;;;;;;;17.33;7.30;;;;;;;;;;5075170;28;20143;-64
2022/03/11 07:17:20;;;;;;;14.05;6.85;;;;;;;;;;5078124;28;20526;-65
2022/03/11 07:19:46;;;;;;;15.80;7.95;;;;;;;;;;5077950;28;20061;-63
2022/03/11 07:22:12;;;;;;;12.82;6.25;;;;;;;;;;5069692;28;20487;-64
2022/03/11 07:24:39;;;;;;;15.32;6.80;;;;;;;;;;5082518;28;20076;-63
2022/03/11 07:27:05;;;;;;;13.45;7.07;;;;;;;;;;5071615;28;20048;-64
2022/03/11 07:29:32;;;;;;;18.60;7.85;;;;;;;;;;5068453;28;20518;-65
2022/03/11 07:31:58;;;;;;;16.60;7.43;;;;;;;;;;5074456;28;20129;-64
2022/03/11 07:34:26;;;;;;;15.43;6.78;;;;;;;;;;5067452;28;20138;-67
2022/03/11 07:36:52;;;;;;;16.27;6.90;;;;;;;;;;5068094;28;20144;-66
2022/03/11 07:39:19;;;;;;;15.98;7.40;;;;;;;;;;5068434;28;20057;-67
2022/03/11 07:41:45;;;;;;;14.15;6.05;;;;;;;;;;5067575;28;20140;-65
2022/03/11 07:44:13;;;;;;;21.63;8.13;;;;;;;;;;5068492;28;20148;-64
2022/03/11 07:46:44;;;;;;;13.38;6.45;;;;;;;;;;5083629;28;20147;-65
2022/03/11 07:49:11;;;;;;;13.55;7.05;;;;;;;;;;5071240;28;20045;-61
2022/03/11 07:51:37;;;;;;;13.68;7.00;;;;;;;;;;5087426;28;20137;-61
2022/03/11 07:54:04;;;;;;;16.80;7.82;;;;;;;;;;5085524;28;20118;-63
2022/03/11 07:56:30;;;;;;;15.00;6.95;;;;;;;;;;5078921;28;20132;-63
2022/03/11 07:58:57;;;;;;;14.60;7.30;;;;;;;;;;5072370;28;20085;-63
2022/03/11 08:01:23;;;;;;;14.43;6.55;;;;;;;;;;5073625;28;20400;-63
2022/03/11 08:03:50;;;;;;;17.70;7.72;;;;;;;;;;5089083;28;20264;-63
2022/03/11 08:06:16;;;;;;;17.80;6.80;;;;;;;;;;5073318;28;20148;-63
2022/03/11 08:08:43;;;;;;;16.67;7.15;;;;;;;;;;5079064;28;20061;-63
2022/03/11 08:11:10;;;;;;;15.65;7.18;;;;;;;;;;5082211;28;20087;-63
2022/03/11 08:13:37;;;;;;;14.45;7.70;;;;;;;;;;5078791;28;20144;-63
2022/03/11 08:16:08;;;;;;;13.88;6.80;;;;;;;;;;5068390;28;20106;-63
2022/03/11 08:18:35;;;;;;;15.75;7.78;;;;;;;;;;5079300;28;20059;-62
2022/03/11 08:21:03;;;;;;;15.85;7.85;;;;;;;;;;5067110;28;20103;-61
2022/03/11 08:23:29;;;;;;;16.33;7.95;;;;;;;;;;5086582;28;20052;-64
2022/03/11 08:25:56;;;;;;;14.85;7.43;;;;;;;;;;5070917;28;20698;-63
2022/03/11 08:28:23;;;;;;;16.48;7.32;;;;;;;;;;5067898;28;20061;-64
2022/03/11 08:30:50;;;;;;;14.65;7.75;;;;;;;;;;5066691;28;20068;-63
2022/03/11 08:33:20;;;;;;;18.17;7.05;;;;;;;;;;5068030;28;20057;-63
2022/03/11 08:36:07;;;;;;;18.00;8.25;;;;;;;;;;5086223;28;21370;-63
2022/03/11 08:38:37;;;;;;;18.88;9.27;;;;;;;;;;5087999;28;20052;-63
2022/03/11 08:41:06;;;;;;;16.92;8.20;;;;;;;;;;5086668;28;20136;-63
2022/03/11 08:43:34;;;;;;;18.50;8.50;;;;;;;;;;5079787;28;20061;-63
2022/03/11 08:46:01;;;;;;;14.68;6.57;;;;;;;;;;5067487;28;20140;-63
2022/03/11 08:48:28;;;;;;;16.38;7.68;;;;;;;;;;5070855;28;20080;-64
2022/03/11 08:50:54;;;;;;;15.07;6.53;;;;;;;;;;5078936;28;20147;-64
2022/03/11 08:53:21;;;;;;;16.77;8.70;;;;;;;;;;5068441;28;20643;-64
2022/03/11 08:55:47;;;;;;;15.88;7.18;;;;;;;;;;5066796;28;20143;-64
2022/03/11 08:58:14;;;;;;;14.45;6.78;;;;;;;;;;5076521;28;20053;-63
2022/03/11 09:00:46;;;;;;;18.05;7.88;;;;;;;;;;5068087;28;20158;-64
2022/03/11 09:03:12;;;;;;;15.90;8.15;;;;;;;;;;5075383;28;20138;-64
2022/03/11 09:05:39;;;;;;;17.33;8.73;;;;;;;;;;5081663;28;20057;-64
2022/03/11 09:08:07;;;;;;;17.65;8.43;;;;;;;;;;5067114;28;20152;-64
2022/03/11 09:10:34;;;;;;;20.10;7.50;;;;;;;;;;5069340;28;20140;-64
2022/03/11 09:13:00;;;;;;;15.63;7.82;;;;;;;;;;5086289;28;21581;-64
2022/03/11 09:15:27;;;;;;;18.65;8.93;;;;;;;;;;5083466;28;20146;-64
2022/03/11 09:17:53;;;;;;;19.15;8.60;;;;;;;;;;5070411;28;20081;-64
2022/03/11 09:20:19;;;;;;;20.00;8.40;;;;;;;;;;5070197;28;20071;-64
2022/03/11 09:22:56;;;;;;;15.27;8.63;;;;;;;;;;5070000;28;20329;-64
2022/03/11 09:25:22;;;;;;;19.77;8.63;;;;;;;;;;5069987;28;20492;-64
2022/03/11 09:27:49;;;;;;;29.73;8.90;;;;;;;;;;5077186;28;20143;-64
2022/03/11 09:30:15;;;;;;;18.70;8.90;;;;;;;;;;5090516;28;20058;-64
2022/03/11 09:32:42;;;;;;;22.52;8.73;;;;;;;;;;5091295;28;20045;-64
2022/03/11 09:35:08;;;;;;;17.10;8.45;;;;;;;;;;5090618;28;20593;-64
2022/03/11 09:37:35;;;;;;;20.27;9.38;;;;;;;;;;5090351;28;20044;-64
2022/03/11 09:40:02;;;;;;;22.35;8.75;;;;;;;;;;5090186;28;20051;-64
2022/03/11 09:42:29;;;;;;;18.30;8.05;;;;;;;;;;5073386;28;20130;-64
2022/03/11 09:44:56;;;;;;;18.20;9.55;;;;;;;;;;5089671;28;20136;-65
2022/03/11 09:47:22;;;;;;;19.88;9.07;;;;;;;;;;5089968;28;20056;-64
2022/03/11 09:49:49;;;;;;;16.00;8.13;;;;;;;;;;5089787;28;20056;-65
2022/03/11 09:52:16;;;;;;;18.02;8.02;;;;;;;;;;5085579;28;20084;-65
2022/03/11 09:54:45;;;;;;;17.50;9.15;;;;;;;;;;5090360;28;20520;-64
2022/03/11 09:57:15;;;;;;;18.90;8.77;;;;;;;;;;5076239;28;20053;-64
2022/03/11 09:59:41;;;;;;;18.02;9.30;;;;;;;;;;5069696;28;20586;-64
2022/03/11 10:02:22;;;;;;;20.58;9.05;;;;;;;;;;5069764;28;20176;-64
2022/03/11 10:04:50;;;;;;;16.75;8.38;;;;;;;;;;5072461;28;20057;-64
2022/03/11 10:07:36;;;;;;;16.75;8.35;;;;;;;;;;5069680;28;20084;-64
2022/03/11 10:10:12;;;;;;;19.45;8.52;;;;;;;;;;5085734;28;20053;-64
2022/03/11 10:12:59;;;;;;;20.58;9.65;;;;;;;;;;5090129;27;20052;-64
2022/03/11 10:15:27;;;;;;;17.35;9.45;;;;;;;;;;5071182;28;20049;-64
2022/03/11 10:17:55;;;;;;;20.05;9.25;;;;;;;;;;5070672;28;20533;-65
2022/03/11 10:20:22;;;;;;;19.20;8.75;;;;;;;;;;5069740;28;20144;-65
2022/03/11 10:22:48;;;;;;;18.75;9.43;;;;;;;;;;5075488;28;20941;-65
2022/03/11 10:25:16;;;;;;;17.05;9.18;;;;;;;;;;5089155;28;20059;-62
2022/03/11 10:27:54;;;;;;;24.83;10.60;;;;;;;;;;5087203;28;20147;-64
2022/03/11 10:30:21;;;;;;;21.02;10.70;;;;;;;;;;5079371;28;20073;-64
2022/03/11 10:32:52;;;;;;;15.85;8.10;;;;;;;;;;5069077;28;20144;-63
2022/03/11 10:35:19;;;;;;;23.40;9.48;;;;;;;;;;5069877;28;20053;-65
2022/03/11 10:38:15;;;;;;;19.77;10.13;;;;;;;;;;5086091;28;20171;-66
2022/03/11 10:40:54;;;;;;;16.15;8.35;;;;;;;;;;5084456;28;20057;-66
2022/03/11 10:43:22;;;;;;;24.92;10.10;;;;;;;;;;5088911;28;20099;-64
2022/03/11 10:45:50;;;;;;;22.48;10.30;;;;;;;;;;5089482;28;20059;-65
2022/03/11 10:48:17;;;;;;;19.40;10.05;;;;;;;;;;5088775;28;20441;-64
2022/03/11 10:50:43;;;;;;;18.73;10.15;;;;;;;;;;5076766;28;20064;-64
2022/03/11 10:53:10;;;;;;;17.90;9.85;;;;;;;;;;5069284;28;20053;-64
2022/03/11 10:55:39;;;;;;;25.40;10.38;;;;;;;;;;5088786;28;20147;-65
2022/03/11 10:58:05;;;;;;;;;;;;;;;;;;5088619;28;20151;-65
2022/03/11 11:00:36;;;;;;;19.48;10.30;;;;;;;;;;5088393;28;43524;-65
2022/03/11 11:03:04;;;;;;;19.98;10.00;;;;;;;;;;5088980;28;20048;-65
2022/03/11 11:05:31;;;;;;;22.27;9.93;;;;;;;;;;5089154;28;20047;-64
2022/03/11 11:07:58;;;;;;;21.77;9.73;;;;;;;;;;5088724;28;20057;-64
2022/03/11 11:10:25;;;;;;;19.77;9.40;;;;;;;;;;5088562;28;20059;-64
2022/03/11 11:12:52;;;;;;;19.02;8.65;;;;;;;;;;5088625;28;20048;-64
2022/03/11 11:15:19;;;;;;;18.48;9.32;;;;;;;;;;5089106;28;20049;-64
2022/03/11 11:17:49;;;;;;;21.65;10.35;;;;;;;;;;5088453;28;20056;-64
2022/03/11 11:20:23;;;;;;;19.33;11.05;;;;;;;;;;5088808;28;20506;-65
2022/03/11 11:22:53;;;;;;;25.10;10.20;;;;;;;;;;5088431;28;20057;-65
2022/03/11 11:25:21;;;;;;;17.10;9.30;;;;;;;;;;5088940;28;20054;-65
2022/03/11 11:27:48;;;;;;;15.50;7.97;;;;;;;;;;5088227;28;20052;-65
2022/03/11 11:30:18;;;;;;;17.90;10.20;;;;;;;;;;5088292;28;20322;-65
2022/03/11 11:32:45;;;;;;;17.85;9.95;;;;;;;;;;5083567;28;20578;-64
2022/03/11 11:35:32;;;;;;;20.70;10.30;;;;;;;;;;5074175;28;20139;-64
2022/03/11 11:38:00;;;;;;;22.55;9.98;;;;;;;;;;5071311;28;20098;-64
2022/03/11 11:40:35;;;;;;;20.67;10.68;;;;;;;;;;5088197;28;20467;-64
2022/03/11 11:43:11;;;;;;;19.17;9.27;;;;;;;;;;5088558;28;20059;-64
2022/03/11 11:45:41;;;;;;;20.83;10.70;;;;;;;;;;5088931;28;20142;-64
2022/03/11 11:48:30;;;;;;;19.48;10.05;;;;;;;;;;5088704;28;20060;-64
2022/03/11 11:50:57;;;;;;;20.75;9.77;;;;;;;;;;5077986;28;20061;-64
2022/03/11 11:53:43;;;;;;;17.30;9.77;;;;;;;;;;5068134;28;20144;-64
2022/03/11 11:56:28;;;;;;;24.00;10.43;;;;;;;;;;5068302;28;20105;-64
2022/03/11 11:58:58;;;;;;;27.00;10.52;;;;;;;;;;5068416;28;20053;-64
2022/03/11 12:01:44;;;;;;;20.25;10.00;;;;;;;;;;5068291;28;20060;-64
2022/03/11 12:04:25;;;;;;;19.25;10.00;;;;;;;;;;5068274;28;20049;-65
2022/03/11 12:06:58;;;;;;;19.15;9.80;;;;;;;;;;5067561;28;20084;-64
2022/03/11 12:09:40;;;;;;;20.92;9.75;;;;;;;;;;5068474;28;20099;-64
2022/03/11 12:12:07;;;;;;;20.42;10.43;;;;;;;;;;5067654;28;20065;-64
2022/03/11 12:14:53;;;;;;;21.25;11.05;;;;;;;;;;5067933;28;20059;-65
2022/03/11 12:17:35;;;;;;;23.58;11.02;;;;;;;;;;5067701;28;20135;-64
2022/03/11 12:20:20;;;;;;;19.75;10.02;;;;;;;;;;5078614;28;20056;-66
2022/03/11 12:22:54;;;;;;;20.00;9.43;;;;;;;;;;5087842;28;20576;-65
2022/03/11 12:25:21;;;;;;;23.33;11.45;;;;;;;;;;5088004;28;20052;-66
2022/03/11 12:28:00;;;;;;;30.27;11.00;;;;;;;;;;5087744;28;20147;-64
2022/03/11 12:30:28;;;;;;;24.27;10.98;;;;;;;;;;5069264;28;20142;-64
2022/03/11 12:32:54;;;;;;;27.17;11.80;;;;;;;;;;5068610;28;20087;-64
2022/03/11 12:35:22;;;;;;;19.08;11.18;;;;;;;;;;5067474;28;20132;-64
2022/03/11 12:37:49;;;;;;;27.83;10.43;;;;;;;;;;5081520;28;20628;-64
2022/03/11 12:40:15;;;;;;;326.52;23.65;;;;;;;;;;5082080;28;20065;-64
2022/03/11 12:42:42;;;;;;;23.80;12.23;;;;;;;;;;5067408;28;20491;-65
2022/03/11 12:45:08;;;;;;;21.88;10.73;;;;;;;;;;5067551;28;20057;-65
2022/03/11 12:47:39;;;;;;;20.98;11.50;;;;;;;;;;5067117;28;20065;-64
2022/03/11 12:50:07;;;;;;;21.48;10.93;;;;;;;;;;5076902;28;20048;-64
2022/03/11 12:52:37;;;;;;;22.23;11.80;;;;;;;;;;5090661;28;20469;-66
2022/03/11 12:55:25;;;;;;;24.83;11.20;;;;;;;;;;5079404;28;20569;-66
2022/03/11 12:57:53;;;;;;;18.67;10.15;;;;;;;;;;5070729;28;20517;-66
2022/03/11 13:00:20;;;;;;;19.33;10.00;;;;;;;;;;5070883;28;20060;-66
2022/03/11 13:02:47;;;;;;;23.07;11.93;;;;;;;;;;5071137;28;20133;-65
2022/03/11 13:05:22;;;;;;;23.90;11.20;;;;;;;;;;5075687;28;20048;-65
2022/03/11 13:07:52;;;;;;;21.38;11.25;;;;;;;;;;5091079;28;20407;-66
2022/03/11 13:10:26;;;;;;;20.20;10.80;;;;;;;;;;5089273;28;20053;-65
2022/03/11 13:12:54;;;;;;;18.77;11.15;;;;;;;;;;5077314;28;20073;-66
2022/03/11 13:15:22;;;;;;;18.67;9.32;;;;;;;;;;5080399;28;20126;-65
2022/03/11 13:17:51;;;;;;;21.25;10.52;;;;;;;;;;5089497;28;20052;-63
2022/03/11 13:20:17;;;;;;;;;;;;;;;;;;5082837;28;20083;-65
2022/03/11 13:22:48;;;;;;;18.35;10.82;;;;;;;;;;5089211;28;45035;-64
2022/03/11 13:25:15;;;;;;;20.63;10.60;;;;;;;;;;5085431;28;20048;-65
2022/03/11 13:27:41;;;;;;;17.83;10.35;;;;;;;;;;5089636;28;20437;-65
2022/03/11 13:30:08;;;;;;;19.70;11.27;;;;;;;;;;5089164;28;20053;-65
2022/03/11 13:32:34;;;;;;;17.92;9.20;;;;;;;;;;5089441;28;20059;-63
2022/03/11 13:35:00;;;;;;;24.30;10.93;;;;;;;;;;5090776;28;20095;-63
2022/03/11 13:37:27;;;;;;;19.08;9.57;;;;;;;;;;5090388;28;20102;-65
2022/03/11 13:40:06;;;;;;;18.35;10.63;;;;;;;;;;5089796;28;20527;-63
2022/03/11 13:42:32;;;;;;;18.88;10.02;;;;;;;;;;5090299;28;20056;-65
2022/03/11 13:45:06;;;;;;;21.75;11.07;;;;;;;;;;5090420;28;20052;-63
2022/03/11 13:47:32;;;;;;;20.63;11.05;;;;;;;;;;5090280;28;20100;-63
2022/03/11 13:50:06;;;;;;;20.92;11.02;;;;;;;;;;5090363;28;20088;-64
2022/03/11 13:52:41;;;;;;;26.42;10.65;;;;;;;;;;5089822;28;20052;-63
2022/03/11 13:55:10;;;;;;;20.45;11.10;;;;;;;;;;5089564;28;20084;-63
2022/03/11 13:57:36;;;;;;;;;;;;;;;;;;5090240;28;20128;-63
2022/03/11 14:00:18;;;;;;;23.77;11.57;;;;;;;;;;5088810;28;45513;-63
2022/03/11 14:02:44;;;;;;;19.13;9.68;;;;;;;;;;5089155;28;20059;-64
2022/03/11 14:05:16;;;;;;;20.23;11.00;;;;;;;;;;5090221;28;20052;-65
2022/03/11 14:07:43;;;;;;;19.52;10.73;;;;;;;;;;5090518;28;20052;-63
2022/03/11 14:10:19;;;;;;;20.30;10.38;;;;;;;;;;5089813;28;20102;-65
2022/03/11 14:12:47;;;;;;;21.63;11.48;;;;;;;;;;5089775;28;20411;-63
2022/03/11 14:15:14;;;;;;;19.33;10.23;;;;;;;;;;5090372;28;20583;-64
2022/03/11 14:17:41;;;;;;;19.05;11.65;;;;;;;;;;5089829;28;20118;-64
2022/03/11 14:20:09;;;;;;;21.75;10.82;;;;;;;;;;5089854;28;20052;-64
2022/03/11 14:22:36;;;;;;;25.13;10.90;;;;;;;;;;5090130;28;20131;-63
2022/03/11 14:25:07;;;;;;;21.65;11.15;;;;;;;;;;5089317;28;20739;-63
2022/03/11 14:27:33;;;;;;;19.95;11.70;;;;;;;;;;5089648;28;20559;-64
2022/03/11 14:29:59;;;;;;;19.17;10.07;;;;;;;;;;5089588;28;20045;-63
2022/03/11 14:32:26;;;;;;;18.90;9.85;;;;;;;;;;5089664;28;20078;-64
2022/03/11 14:34:52;;;;;;;18.50;10.38;;;;;;;;;;5088863;28;20057;-64